Terminal Aerodrome Forecast
Issued by NWS

Home | Current Version | Previous Version | Text Only | Print | Product List | Glossary On
Versions: 1 2 3 4 5 6 7 8 9 10 11 12 13
009
FTUS43 KICT 132336
TAFCNU
TAF
KCNU 132336Z 1400/1424 33010KT P6SM SKC
     FM140500 36006KT P6SM FEW250
     FM141700 35007KT P6SM BKN100=

USA.gov is the U.S. government's official web portal to all federal, state and local government web resources and services.